Time;durP1;ratioP1;P1;durP2;ratioP2;P2;SDS_P1;SDS_P2;PMS_P1;PMS_P2;Temp;Humidity;BMP_temperature;BMP_pressure;BME280_temperature;BME280_humidity;BME280_pressure;Samples;Min_cycle;Max_cycle;Signal;HPM_P1;HPM_P2
2021/04/21 00:02:23;;;;;;;18.65;14.63;;;;;;;7.66;79.27;99253.59;4957485;28;20232;-72
2021/04/21 00:04:52;;;;;;;16.00;13.65;;;;;;;7.80;78.92;99246.66;4956976;29;20232;-73
2021/04/21 00:07:20;;;;;;;17.13;14.13;;;;;;;7.83;78.86;99249.19;4957347;29;20216;-72
2021/04/21 00:09:48;;;;;;;16.50;14.30;;;;;;;7.81;78.40;99246.59;4957213;29;20207;-72
2021/04/21 00:12:16;;;;;;;16.23;12.45;;;;;;;7.73;78.73;99244.31;4957047;28;20208;-73
2021/04/21 00:14:42;;;;;;;14.57;13.07;;;;;;;7.53;79.32;99247.16;4957344;29;20193;-72
2021/04/21 00:17:08;;;;;;;16.33;13.85;;;;;;;7.62;79.20;99244.00;4957315;29;20275;-74
2021/04/21 00:19:38;;;;;;;15.00;12.90;;;;;;;7.41;80.18;99243.28;4956866;29;20216;-71
2021/04/21 00:22:06;;;;;;;17.98;14.23;;;;;;;7.32;80.96;99249.09;4956367;28;20312;-72
2021/04/21 00:24:35;;;;;;;13.90;12.40;;;;;;;7.28;81.00;99236.78;4956993;28;20212;-71
2021/04/21 00:27:03;;;;;;;15.27;13.50;;;;;;;7.29;80.96;99238.56;4957081;28;20279;-71
2021/04/21 00:29:31;;;;;;;17.23;13.23;;;;;;;7.21;81.30;99241.63;4956647;29;20218;-72
2021/04/21 00:32:02;;;;;;;14.10;12.70;;;;;;;7.32;81.08;99239.25;4956519;29;20236;-71
2021/04/21 00:34:29;;;;;;;15.88;14.15;;;;;;;7.33;80.54;99240.13;4956769;29;20185;-72
2021/04/21 00:36:57;;;;;;;17.08;14.55;;;;;;;7.26;81.23;99238.72;4956950;29;20189;-72
2021/04/21 00:39:24;;;;;;;16.25;13.30;;;;;;;7.37;80.81;99240.81;4956489;29;20645;-72
2021/04/21 00:41:59;;;;;;;15.25;13.70;;;;;;;7.33;80.84;99240.13;4956767;29;20691;-71
2021/04/21 00:44:40;;;;;;;14.55;12.98;;;;;;;7.42;80.30;99234.31;4956796;29;20239;-72
2021/04/21 00:47:08;;;;;;;14.80;13.13;;;;;;;7.23;81.28;99237.03;4956397;29;20193;-73
2021/04/21 00:49:45;;;;;;;17.63;13.20;;;;;;;7.26;80.94;99234.22;4956302;29;20203;-72
2021/04/21 00:52:17;;;;;;;17.40;13.13;;;;;;;7.19;81.23;99234.59;4956530;28;20279;-71
2021/04/21 00:54:51;;;;;;;15.05;13.15;;;;;;;7.22;81.18;99229.09;4956415;29;20662;-72
2021/04/21 00:57:22;;;;;;;19.30;14.50;;;;;;;6.96;82.03;99230.38;4956308;29;20664;-71
2021/04/21 01:00:02;;;;;;;17.25;14.18;;;;;;;7.10;81.86;99238.63;4956309;29;20248;-72
2021/04/21 01:02:35;;;;;;;16.83;13.65;;;;;;;7.24;81.04;99232.56;4956402;29;20254;-73
2021/04/21 01:05:09;;;;;;;20.65;13.27;;;;;;;7.37;80.38;99225.66;4955258;28;20239;-71
2021/04/21 01:07:36;;;;;;;17.70;13.80;;;;;;;7.16;81.01;99227.56;4956067;28;20189;-72
2021/04/21 01:10:04;;;;;;;14.88;13.25;;;;;;;6.84;82.42;99232.72;4955423;28;20256;-73
2021/04/21 01:12:32;;;;;;;18.02;14.32;;;;;;;6.79;82.93;99237.44;4956076;28;20208;-72
2021/04/21 01:15:02;;;;;;;15.80;13.07;;;;;;;6.70;83.82;99237.00;4956007;28;20630;-72
2021/04/21 01:17:29;;;;;;;14.35;11.30;;;;;;;6.80;83.03;99230.25;4955909;29;20212;-74
2021/04/21 01:20:16;;;;;;;15.40;13.10;;;;;;;6.71;83.69;99230.72;4955313;29;20209;-73
2021/04/21 01:23:08;;;;;;;14.25;12.75;;;;;;;6.68;83.82;99226.38;4955884;29;20544;-73
2021/04/21 01:25:41;;;;;;;17.67;14.48;;;;;;;6.74;83.36;99231.44;4955883;28;20624;-72
2021/04/21 01:28:11;;;;;;;14.50;13.00;;;;;;;6.59;83.97;99229.50;4955857;29;20272;-72
2021/04/21 01:30:42;;;;;;;16.85;14.18;;;;;;;6.65;83.83;99222.03;4955476;29;20213;-70
2021/04/21 01:33:13;;;;;;;17.40;13.25;;;;;;;6.64;83.63;99222.97;4955438;29;20221;-71
2021/04/21 01:35:44;;;;;;;14.73;12.43;;;;;;;6.86;83.02;99220.13;4955552;29;20275;-70
2021/04/21 01:38:12;;;;;;;13.15;11.85;;;;;;;6.93;82.44;99217.16;4955700;29;20193;-73
2021/04/21 01:40:42;;;;;;;13.43;12.02;;;;;;;6.78;82.82;99218.75;4955647;29;20209;-73
2021/04/21 01:43:15;;;;;;;14.90;12.40;;;;;;;6.68;83.35;99229.06;4955123;29;20215;-73
2021/04/21 01:45:43;;;;;;;15.00;12.48;;;;;;;6.66;83.37;99228.25;4955680;29;20619;-72
2021/04/21 01:48:16;;;;;;;16.45;12.55;;;;;;;6.65;83.55;99224.72;4955554;29;20266;-70
2021/04/21 01:50:42;;;;;;;14.60;12.57;;;;;;;6.81;83.04;99216.81;4955315;28;20381;-73
2021/04/21 01:53:22;;;;;;;14.50;12.18;;;;;;;6.56;83.57;99218.94;4955468;28;20674;-72
2021/04/21 01:56:07;;;;;;;15.90;12.73;;;;;;;6.62;83.39;99229.34;4955113;29;20193;-71
2021/04/21 01:58:45;;;;;;;17.00;13.65;;;;;;;6.64;83.26;99217.63;4955319;29;20188;-71
2021/04/21 02:01:20;;;;;;;15.40;13.05;;;;;;;6.42;83.93;99214.22;4954775;29;20270;-72
2021/04/21 02:03:53;;;;;;;14.27;12.70;;;;;;;6.33;84.55;99218.22;4955390;29;20310;-70
2021/04/21 02:06:43;;;;;;;17.10;13.60;;;;;;;6.15;85.39;99216.38;4954923;28;20734;-71
2021/04/21 02:09:22;;;;;;;19.85;14.57;;;;;;;6.07;86.19;99223.91;4955452;29;20236;-71
2021/04/21 02:12:05;;;;;;;15.30;12.27;;;;;;;6.16;86.11;99228.84;4955090;29;20581;-72
2021/04/21 02:14:42;;;;;;;13.60;12.20;;;;;;;6.07;86.08;99223.91;4954529;29;20193;-72
2021/04/21 02:17:20;;;;;;;15.90;14.20;;;;;;;6.05;86.17;99227.50;4954548;29;20287;-72
2021/04/21 02:19:54;;;;;;;14.75;12.50;;;;;;;6.05;86.40;99223.97;4954767;28;20212;-72
2021/04/21 02:22:32;;;;;;;15.23;13.07;;;;;;;5.95;86.71;99228.00;4954059;29;20647;-72
2021/04/21 02:25:05;;;;;;;16.92;12.23;;;;;;;6.09;86.18;99230.06;4954712;29;20195;-71
2021/04/21 02:27:40;;;;;;;15.07;13.00;;;;;;;6.00;86.13;99217.97;4954442;29;20212;-71
2021/04/21 02:30:11;;;;;;;15.48;13.82;;;;;;;6.09;85.91;99219.38;4954410;29;20215;-70
2021/04/21 02:33:00;;;;;;;15.40;12.00;;;;;;;6.05;86.04;99223.97;4954738;29;20296;-72
2021/04/21 02:35:43;;;;;;;15.95;13.43;;;;;;;6.00;86.40;99217.97;4954657;29;20255;-70
2021/04/21 02:38:20;;;;;;;16.08;12.50;;;;;;;6.03;85.88;99224.03;4894852;29;20274;-72
2021/04/21 02:41:02;;;;;;;15.00;12.88;;;;;;;6.04;86.23;99224.91;4894915;29;20651;-71
2021/04/21 02:43:40;;;;;;;14.65;11.60;;;;;;;5.95;86.29;99225.34;4895358;29;20210;-71
2021/04/21 02:46:18;;;;;;;13.30;11.90;;;;;;;5.84;86.93;99223.09;4895467;29;20214;-72
2021/04/21 02:48:55;;;;;;;14.15;12.43;;;;;;;5.79;86.97;99222.47;4895124;29;20198;-70
2021/04/21 02:51:30;;;;;;;13.57;12.07;;;;;;;5.83;86.96;99221.34;4895730;29;20278;-72
2021/04/21 02:54:04;;;;;;;15.25;12.07;;;;;;;5.87;86.67;99225.63;4895886;29;20190;-73
2021/04/21 02:56:36;;;;;;;14.00;12.32;;;;;;;5.95;86.76;99225.34;4895824;29;20293;-73
2021/04/21 02:59:14;;;;;;;14.63;12.65;;;;;;;5.94;86.44;99228.91;4896161;29;20642;-73
2021/04/21 03:01:53;;;;;;;14.88;12.32;;;;;;;6.06;86.13;99223.06;4895912;29;20210;-72
2021/04/21 03:04:29;;;;;;;18.00;12.90;;;;;;;6.08;85.40;99218.47;4895763;29;20381;-73
2021/04/21 03:06:59;;;;;;;13.90;12.25;;;;;;;6.01;85.51;99215.22;4895812;29;20224;-73
2021/04/21 03:09:31;;;;;;;15.48;11.65;;;;;;;5.83;86.31;99221.34;4895403;29;20355;-72
2021/04/21 03:11:59;;;;;;;13.60;12.20;;;;;;;5.80;86.86;99221.50;4895823;29;20586;-72
2021/04/21 03:14:30;;;;;;;14.60;12.27;;;;;;;5.73;86.97;99209.38;4905656;29;20209;-72
2021/04/21 03:16:59;;;;;;;15.25;13.50;;;;;;;5.68;87.23;99214.91;4955089;29;20193;-72
2021/04/21 03:19:29;;;;;;;18.50;13.52;;;;;;;5.80;86.88;99213.50;4954981;29;20630;-73
2021/04/21 03:22:00;;;;;;;17.05;13.55;;;;;;;5.70;86.83;99204.13;4954812;29;20197;-73
2021/04/21 03:24:30;;;;;;;17.48;13.38;;;;;;;5.58;87.54;99214.41;4955154;29;20671;-72
2021/04/21 03:27:02;;;;;;;18.33;14.02;;;;;;;5.58;87.66;99216.22;4955074;29;20188;-72
2021/04/21 03:29:31;;;;;;;17.23;13.02;;;;;;;5.64;87.06;99206.16;4954596;29;20203;-73
2021/04/21 03:32:02;;;;;;;16.20;13.85;;;;;;;5.62;87.38;99205.34;4955243;28;20294;-72
2021/04/21 03:34:29;;;;;;;16.15;13.15;;;;;;;5.64;87.45;99208.81;4958819;28;20236;-73
2021/04/21 03:36:56;;;;;;;14.98;13.25;;;;;;;5.68;87.06;99209.56;4958533;29;20228;-74
2021/04/21 03:39:23;;;;;;;14.57;12.38;;;;;;;5.71;86.90;99205.88;4958250;28;20196;-73
2021/04/21 03:41:49;;;;;;;15.90;12.80;;;;;;;5.82;86.35;99203.59;4958826;28;20195;-72
2021/04/21 03:44:16;;;;;;;20.75;13.40;;;;;;;5.62;86.67;99204.50;4958450;29;20189;-71
2021/04/21 03:46:43;;;;;;;15.20;12.40;;;;;;;5.46;87.74;99211.44;4957992;28;20256;-73
2021/04/21 03:49:11;;;;;;;14.13;12.63;;;;;;;5.53;87.40;99216.44;4957907;29;20204;-73
2021/04/21 03:51:38;;;;;;;18.23;13.60;;;;;;;5.38;88.33;99215.31;4958251;28;20216;-72
2021/04/21 03:54:05;;;;;;;20.58;13.57;;;;;;;5.52;87.69;99212.03;4958130;29;20203;-72
2021/04/21 03:56:33;;;;;;;16.17;13.77;;;;;;;5.51;87.34;99206.75;4958064;29;20191;-72
2021/04/21 03:59:00;;;;;;;18.40;14.52;;;;;;;5.64;86.83;99216.84;4958220;28;20267;-72
2021/04/21 04:01:27;;;;;;;14.80;12.05;;;;;;;5.47;87.28;99219.38;4958192;29;20224;-72
2021/04/21 04:03:56;;;;;;;15.77;13.00;;;;;;;5.49;87.32;99216.63;4958163;29;20674;-72
2021/04/21 04:06:26;;;;;;;16.52;13.50;;;;;;;5.42;87.87;99216.03;4958270;29;20200;-72
2021/04/21 04:08:58;;;;;;;16.83;13.60;;;;;;;5.48;87.54;99221.13;4958254;29;20635;-72
2021/04/21 04:11:29;;;;;;;17.63;13.90;;;;;;;5.43;87.76;99215.13;4958434;28;20207;-72
2021/04/21 04:14:01;;;;;;;15.23;13.13;;;;;;;5.56;87.28;99216.31;4957650;29;20252;-73
2021/04/21 04:16:30;;;;;;;16.77;13.18;;;;;;;5.44;87.44;99222.19;4957255;29;20193;-72
2021/04/21 04:18:59;;;;;;;14.82;12.68;;;;;;;5.50;87.33;99219.25;4957164;29;20221;-72
2021/04/21 04:21:33;;;;;;;14.65;11.93;;;;;;;5.50;87.07;99224.59;4957862;28;20685;-72
2021/04/21 04:24:02;;;;;;;16.63;13.20;;;;;;;5.53;86.87;99228.94;4957720;29;20632;-72
2021/04/21 04:26:28;;;;;;;18.05;13.77;;;;;;;5.37;86.90;99228.72;4957538;28;20271;-72
2021/04/21 04:28:55;;;;;;;21.80;14.95;;;;;;;5.44;86.83;99222.19;4957883;29;20212;-73
2021/04/21 04:31:22;;;;;;;21.95;14.40;;;;;;;5.47;86.65;99230.03;4957868;28;20666;-72
2021/04/21 04:33:50;;;;;;;17.77;14.32;;;;;;;5.46;86.93;99233.66;4957668;28;20205;-72
2021/04/21 04:36:17;;;;;;;23.30;16.55;;;;;;;5.40;87.36;99229.47;4957444;29;20215;-72
2021/04/21 04:38:45;;;;;;;18.88;15.02;;;;;;;5.39;87.71;99230.38;4957394;29;20275;-73
2021/04/21 04:41:12;;;;;;;19.38;14.27;;;;;;;5.39;87.44;99226.84;4957997;28;20231;-73
2021/04/21 04:43:41;;;;;;;18.17;14.40;;;;;;;5.42;87.47;99224.03;4956514;28;20216;-73
2021/04/21 04:46:09;;;;;;;20.92;15.18;;;;;;;5.60;87.37;99228.59;4957635;28;20534;-72
2021/04/21 04:48:41;;;;;;;16.73;14.45;;;;;;;5.79;86.39;99234.00;4957520;29;20530;-73
2021/04/21 04:51:10;;;;;;;18.05;13.30;;;;;;;5.86;85.70;99226.59;4957620;29;20199;-73
2021/04/21 04:53:36;;;;;;;13.95;12.45;;;;;;;5.72;85.69;99229.88;4957160;29;20236;-72
2021/04/21 04:56:06;;;;;;;19.27;14.65;;;;;;;5.84;85.91;99223.09;4957172;29;20243;-73
2021/04/21 04:58:34;;;;;;;15.48;13.75;;;;;;;6.02;84.83;99238.34;4957524;28;20196;-72
2021/04/21 05:01:06;;;;;;;14.88;13.07;;;;;;;6.34;83.51;99233.31;4956985;29;20228;-72
2021/04/21 05:03:40;;;;;;;15.35;13.05;;;;;;;6.30;82.60;99241.56;4957196;29;20192;-72
2021/04/21 05:06:11;;;;;;;17.58;14.65;;;;;;;6.23;83.39;99244.50;4956750;29;20267;-73
2021/04/21 05:08:44;;;;;;;16.05;13.50;;;;;;;6.30;83.26;99247.75;4956709;29;20622;-72
2021/04/21 05:11:13;;;;;;;21.10;14.55;;;;;;;6.36;82.75;99247.50;4957159;28;20686;-73
2021/04/21 05:13:44;;;;;;;33.05;18.42;;;;;;;6.52;82.38;99241.44;4956647;29;20208;-73
2021/04/21 05:16:52;;;;;;;17.92;12.13;;;;;;;6.43;82.01;99243.59;4957355;29;20616;-72
2021/04/21 05:19:53;;;;;;;20.33;12.70;;;;;;;6.66;81.59;99255.88;4944163;28;20618;-72
2021/04/21 05:22:59;;;;;;;15.40;11.85;;;;;;;6.93;80.40;99254.63;4924543;28;20201;-73
2021/04/21 05:26:19;;;;;;;18.25;12.43;;;;;;;6.96;80.46;99255.31;4956659;29;20242;-73
2021/04/21 05:29:22;;;;;;;14.35;12.45;;;;;;;7.24;79.29;99254.84;4956102;29;20235;-74
2021/04/21 05:32:22;;;;;;;15.35;12.55;;;;;;;7.27;79.12;99262.72;4956045;28;20189;-72
2021/04/21 05:35:27;;;;;;;16.42;13.90;;;;;;;7.23;79.13;99263.81;4956003;29;20185;-74
2021/04/21 05:38:33;;;;;;;17.40;12.55;;;;;;;7.47;78.63;99255.50;4931835;28;20201;-72
2021/04/21 05:41:36;;;;;;;22.42;12.15;;;;;;;7.57;78.08;99250.53;4949540;29;20319;-72
2021/04/21 05:44:35;;;;;;;21.30;14.43;;;;;;;7.87;77.22;99256.13;4956202;29;20291;-72
2021/04/21 05:47:39;;;;;;;16.42;11.55;;;;;;;8.15;75.14;99255.53;4956300;28;20201;-72
2021/04/21 05:50:47;;;;;;;17.50;13.23;;;;;;;8.30;74.70;99260.06;4956291;29;20276;-72
2021/04/21 05:53:44;;;;;;;14.10;12.27;;;;;;;8.25;74.81;99261.25;4955538;28;20208;-73
2021/04/21 05:56:42;;;;;;;18.73;15.25;;;;;;;8.54;73.41;99257.00;4955804;28;20689;-72
2021/04/21 05:59:40;;;;;;;15.40;12.50;;;;;;;8.59;72.61;99265.66;4936805;29;20236;-73
2021/04/21 06:02:07;;;;;;;14.68;12.15;;;;;;;8.35;73.49;99263.34;4942645;29;20205;-74
2021/04/21 06:04:34;;;;;;;14.20;11.45;;;;;;;8.63;72.67;99263.69;4955422;29;20718;-74
2021/04/21 06:07:07;;;;;;;14.38;11.50;;;;;;;8.54;72.82;99268.59;4955672;29;20201;-72
2021/04/21 06:09:33;;;;;;;15.88;12.63;;;;;;;8.71;72.84;99266.81;4955392;28;20200;-73
2021/04/21 06:12:08;;;;;;;15.85;12.35;;;;;;;8.87;72.42;99272.22;4955619;28;20191;-73
2021/04/21 06:14:34;;;;;;;13.88;11.75;;;;;;;8.69;72.43;99269.59;4955396;29;20241;-73
2021/04/21 06:17:01;;;;;;;13.55;12.15;;;;;;;8.89;72.17;99273.84;4956035;29;20618;-73
2021/04/21 06:19:27;;;;;;;15.85;11.98;;;;;;;8.96;71.85;99280.59;4954786;28;20475;-74
2021/04/21 06:21:54;;;;;;;13.80;11.65;;;;;;;9.33;70.89;99277.63;4955429;28;20197;-73
2021/04/21 06:24:22;;;;;;;13.73;12.30;;;;;;;9.22;70.66;99280.91;4955485;29;20291;-73
2021/04/21 06:26:49;;;;;;;15.63;12.15;;;;;;;9.23;70.94;99271.91;4955357;29;20656;-74
2021/04/21 06:29:15;;;;;;;15.07;12.90;;;;;;;9.39;70.62;99277.28;4955137;28;20241;-73
2021/04/21 06:31:43;;;;;;;16.33;14.57;;;;;;;9.65;69.72;99281.09;4955140;29;20221;-74
2021/04/21 06:34:11;;;;;;;16.85;13.50;;;;;;;9.76;69.26;99267.00;4955027;28;20198;-72
2021/04/21 06:36:42;;;;;;;16.35;14.10;;;;;;;9.72;69.27;99273.53;4955273;29;20266;-74
2021/04/21 06:39:11;;;;;;;15.27;13.38;;;;;;;9.94;68.68;99278.50;4954832;29;20246;-74
2021/04/21 06:41:37;;;;;;;16.90;13.73;;;;;;;9.72;69.03;99279.78;4955156;28;20254;-73
2021/04/21 06:44:04;;;;;;;14.40;13.00;;;;;;;9.73;69.51;99280.66;4955467;29;20285;-73
2021/04/21 06:46:30;;;;;;;19.25;15.20;;;;;;;9.82;68.89;99275.56;4954654;28;20198;-73
2021/04/21 06:48:58;;;;;;;23.30;15.90;;;;;;;9.94;68.66;99281.19;4955117;29;20191;-74
2021/04/21 06:51:27;;;;;;;19.77;14.90;;;;;;;9.88;69.01;99279.75;4955143;29;20286;-75
2021/04/21 06:53:54;;;;;;;15.15;13.45;;;;;;;10.10;68.50;99284.66;4954399;28;20239;-74
2021/04/21 06:56:29;;;;;;;18.30;14.75;;;;;;;10.44;67.07;99285.28;4955240;28;20196;-73
2021/04/21 06:58:56;;;;;;;19.17;16.33;;;;;;;10.80;65.77;99276.72;4954987;29;20227;-72
2021/04/21 07:01:26;;;;;;;16.85;14.65;;;;;;;10.79;65.69;99283.06;4954248;28;20225;-73
2021/04/21 07:03:54;;;;;;;16.55;14.75;;;;;;;11.09;64.46;99278.50;4954874;29;20192;-73
2021/04/21 07:06:22;;;;;;;16.60;13.10;;;;;;;11.01;64.80;99282.56;4954887;29;20208;-72
2021/04/21 07:08:48;;;;;;;19.05;16.08;;;;;;;11.29;64.10;99286.13;4954499;29;20721;-73
2021/04/21 07:11:15;;;;;;;17.83;14.68;;;;;;;11.68;62.72;99287.13;4954373;29;20185;-72
2021/04/21 07:13:46;;;;;;;18.33;14.85;;;;;;;11.86;61.73;99293.09;4954780;28;20251;-73
2021/04/21 07:16:19;;;;;;;22.17;13.50;;;;;;;12.09;61.05;99294.25;4954555;29;20275;-72
2021/04/21 07:18:50;;;;;;;17.80;13.90;;;;;;;12.35;59.83;99291.59;4954889;29;20227;-73
2021/04/21 07:21:17;;;;;;;17.73;15.20;;;;;;;12.52;59.56;99292.09;4954216;28;20208;-73
2021/04/21 07:23:48;;;;;;;18.60;14.38;;;;;;;12.70;59.09;99289.91;4954675;29;20259;-72
2021/04/21 07:26:14;;;;;;;16.75;13.85;;;;;;;12.61;59.11;99287.03;4955021;29;20228;-73
2021/04/21 07:28:42;;;;;;;16.55;14.85;;;;;;;12.89;58.60;99288.63;4954759;29;20196;-73
2021/04/21 07:31:14;;;;;;;19.42;15.70;;;;;;;12.70;58.84;99298.03;4954811;29;20267;-73
2021/04/21 07:33:42;;;;;;;18.83;15.65;;;;;;;12.83;58.55;99287.22;4954579;28;20208;-73
2021/04/21 07:36:11;;;;;;;21.02;15.13;;;;;;;12.66;59.24;99280.34;4954480;29;20216;-73
2021/04/21 07:38:45;;;;;;;18.10;15.40;;;;;;;12.86;58.53;99292.38;4954200;28;20536;-73
2021/04/21 07:41:13;;;;;;;20.38;16.02;;;;;;;13.02;58.37;99292.13;4954269;28;20220;-73
2021/04/21 07:43:41;;;;;;;17.30;14.88;;;;;;;13.61;56.47;99285.13;4954625;29;20263;-74
2021/04/21 07:46:15;;;;;;;17.52;15.07;;;;;;;14.01;55.05;99284.78;4955482;29;20251;-72
2021/04/21 07:48:45;;;;;;;18.55;15.55;;;;;;;14.27;53.73;99278.22;4935581;29;20670;-73
2021/04/21 07:51:41;;;;;;;17.92;15.30;;;;;;;14.58;52.31;99286.63;4953101;29;20202;-73
2021/04/21 07:54:17;;;;;;;20.63;15.05;;;;;;;14.56;51.85;99275.94;4934703;29;20561;-73
2021/04/21 07:57:09;;;;;;;16.77;14.02;;;;;;;14.68;51.69;99284.94;4954166;29;20280;-73
2021/04/21 07:59:38;;;;;;;17.83;15.18;;;;;;;14.79;51.85;99279.50;4936174;29;20201;-72
2021/04/21 08:02:17;;;;;;;18.52;15.65;;;;;;;14.68;51.96;99284.94;4954589;29;20536;-72
2021/04/21 08:04:48;;;;;;;15.75;13.43;;;;;;;14.55;51.76;99282.31;4954392;29;20236;-72
2021/04/21 08:07:25;;;;;;;18.17;14.45;;;;;;;14.51;52.42;99282.66;4954170;28;20219;-73
2021/04/21 08:09:52;;;;;;;16.23;13.32;;;;;;;14.30;52.84;99280.66;4954672;28;20224;-73
2021/04/21 08:12:18;;;;;;;19.73;15.25;;;;;;;14.15;53.28;99277.31;4954289;28;20281;-74
2021/04/21 08:14:47;;;;;;;17.75;14.40;;;;;;;14.20;53.32;99282.38;4953903;28;20556;-72
2021/04/21 08:17:17;;;;;;;30.25;21.80;;;;;;;14.22;53.34;99276.84;4954081;28;20192;-71
2021/04/21 08:19:45;;;;;;;21.33;15.82;;;;;;;14.22;53.34;99277.69;4957496;28;20339;-72
2021/04/21 08:22:12;;;;;;;17.83;14.13;;;;;;;14.31;52.96;99279.69;4957775;28;20259;-73
2021/04/21 08:24:42;;;;;;;21.55;15.15;;;;;;;14.61;52.30;99278.28;4957665;28;20212;-72
2021/04/21 08:27:11;;;;;;;20.52;13.65;;;;;;;15.08;50.87;99272.69;4957271;29;20703;-73
2021/04/21 08:29:38;;;;;;;18.70;13.82;;;;;;;15.38;49.66;99272.88;4957312;29;20203;-72
2021/04/21 08:32:05;;;;;;;18.38;14.35;;;;;;;15.84;48.83;99270.88;4957601;28;20328;-71
2021/04/21 08:34:33;;;;;;;14.27;12.30;;;;;;;16.24;47.63;99264.75;4957274;28;20239;-73
2021/04/21 08:37:00;;;;;;;17.77;12.85;;;;;;;16.66;45.98;99270.09;4956637;29;20209;-74
2021/04/21 08:39:27;;;;;;;14.50;11.85;;;;;;;17.09;44.90;99267.19;4957191;29;20611;-73
2021/04/21 08:41:58;;;;;;;17.05;11.77;;;;;;;17.43;44.17;99271.38;4957069;29;20276;-73
2021/04/21 08:44:26;;;;;;;15.50;11.23;;;;;;;18.11;42.65;99279.59;4957054;28;20500;-72
2021/04/21 08:46:54;;;;;;;12.98;9.82;;;;;;;18.34;41.20;99280.16;4956893;28;20186;-74
2021/04/21 08:49:22;;;;;;;12.70;9.90;;;;;;;18.63;40.94;99273.75;4957131;29;20194;-73
2021/04/21 08:51:52;;;;;;;13.48;10.70;;;;;;;18.97;39.36;99265.88;4957010;28;20322;-73
2021/04/21 08:54:22;;;;;;;15.73;10.02;;;;;;;19.37;37.77;99272.84;4957013;29;20272;-73
2021/04/21 08:56:49;;;;;;;12.57;9.70;;;;;;;19.13;37.69;99267.94;4956358;29;20291;-73
2021/04/21 08:59:16;;;;;;;15.57;11.05;;;;;;;19.27;37.71;99262.00;4956772;28;20200;-72
2021/04/21 09:01:44;;;;;;;13.32;11.02;;;;;;;19.41;36.62;99263.34;4956654;28;20237;-72
2021/04/21 09:04:12;;;;;;;8.70;7.75;;;;;;;18.79;35.78;99274.03;4956895;29;20203;-72
2021/04/21 09:06:40;;;;;;;11.63;9.20;;;;;;;18.73;35.68;99269.13;4937539;29;20214;-72
2021/04/21 09:09:07;;;;;;;13.05;9.80;;;;;;;18.60;35.96;99268.59;4938181;29;20220;-71
2021/04/21 09:11:33;;;;;;;9.57;8.02;;;;;;;18.47;36.06;99264.31;4938232;29;20242;-72
2021/04/21 09:14:00;;;;;;;12.10;9.07;;;;;;;18.76;35.86;99266.94;4937773;29;20206;-72
2021/04/21 09:16:27;;;;;;;12.27;8.52;;;;;;;19.13;35.05;99259.75;4937397;29;20201;-72
2021/04/21 09:18:53;;;;;;;10.32;8.98;;;;;;;19.02;34.33;99257.28;4940633;29;20194;-72
2021/04/21 09:21:23;;;;;;;8.68;7.78;;;;;;;18.26;34.60;99260.94;4956182;29;20221;-72
2021/04/21 09:23:50;;;;;;;9.00;7.40;;;;;;;18.38;34.50;99264.34;4956674;29;20625;-72
2021/04/21 09:26:19;;;;;;;10.93;8.77;;;;;;;18.26;34.80;99258.22;4956194;29;20283;-72
2021/04/21 09:28:47;;;;;;;11.00;7.82;;;;;;;18.75;34.49;99261.66;4956265;29;20300;-73
2021/04/21 09:31:17;;;;;;;8.68;7.15;;;;;;;18.46;34.39;99259.88;4956180;28;20559;-72
2021/04/21 09:33:44;;;;;;;8.75;7.00;;;;;;;18.84;33.89;99263.53;4956129;28;20663;-73
2021/04/21 09:36:10;;;;;;;9.23;7.00;;;;;;;18.75;34.18;99259.78;4956475;28;20285;-73
2021/04/21 09:38:37;;;;;;;10.35;8.40;;;;;;;18.67;34.29;99272.44;4956324;28;20607;-73
2021/04/21 09:41:14;;;;;;;11.38;9.10;;;;;;;18.49;34.34;99267.75;4956046;29;20751;-72
2021/04/21 09:43:42;;;;;;;9.68;8.38;;;;;;;19.07;33.71;99257.66;4955861;29;20213;-73
2021/04/21 09:46:16;;;;;;;11.13;10.00;;;;;;;19.21;33.27;99262.59;4955654;29;20308;-73
2021/04/21 09:48:44;;;;;;;11.57;7.75;;;;;;;18.88;33.81;99259.47;4956172;29;20210;-72
2021/04/21 09:51:12;;;;;;;8.85;7.18;;;;;;;18.92;33.82;99258.16;4956648;29;20267;-72
2021/04/21 09:53:40;;;;;;;7.90;6.90;;;;;;;19.06;32.88;99258.66;4956129;28;20267;-73
2021/04/21 09:56:10;;;;;;;8.27;7.38;;;;;;;19.44;32.54;99267.63;4955772;28;20197;-72
2021/04/21 09:58:39;;;;;;;9.15;6.65;;;;;;;19.51;31.51;99244.16;4955936;29;20538;-72
2021/04/21 10:01:34;;;;;;;10.48;6.65;;;;;;;19.24;32.78;99251.38;4955314;28;20238;-73
2021/04/21 10:04:11;;;;;;;7.97;6.93;;;;;;;18.89;33.46;99252.16;4921351;28;20218;-72
2021/04/21 10:06:41;;;;;;;7.65;6.35;;;;;;;18.98;33.50;99247.66;4954835;29;20273;-72
2021/04/21 10:09:22;;;;;;;8.05;6.65;;;;;;;19.52;33.02;99251.34;4956062;29;20651;-73
2021/04/21 10:11:49;;;;;;;7.90;7.10;;;;;;;19.95;31.78;99247.00;4955341;29;20212;-72
2021/04/21 10:14:23;;;;;;;11.00;7.95;;;;;;;20.59;30.92;99248.50;4955804;29;20221;-73
2021/04/21 10:16:51;;;;;;;9.02;6.63;;;;;;;21.14;30.45;99244.50;4955849;28;20259;-73
2021/04/21 10:19:18;;;;;;;8.00;5.83;;;;;;;20.41;30.93;99244.94;4955689;28;20188;-72
2021/04/21 10:21:44;;;;;;;7.63;6.72;;;;;;;20.12;31.83;99243.38;4955357;29;20499;-73
2021/04/21 10:24:11;;;;;;;7.85;6.00;;;;;;;19.95;31.92;99247.00;4955226;29;20203;-72
2021/04/21 10:26:38;;;;;;;7.18;6.55;;;;;;;20.34;30.95;99238.41;4936713;29;20653;-72
2021/04/21 10:29:04;;;;;;;7.10;6.40;;;;;;;19.45;32.36;99242.06;4940632;29;20190;-73
2021/04/21 10:31:31;;;;;;;8.07;7.23;;;;;;;19.74;32.29;99248.19;4955945;29;20215;-73
2021/04/21 10:33:59;;;;;;;11.63;7.03;;;;;;;19.90;32.21;99242.00;4955902;29;20470;-73
2021/04/21 10:36:25;;;;;;;7.70;6.95;;;;;;;19.72;32.31;99243.91;4955925;29;20703;-72
2021/04/21 10:38:52;;;;;;;12.20;6.90;;;;;;;19.63;32.67;99245.66;4955404;28;20345;-73
2021/04/21 10:41:24;;;;;;;5.80;5.30;;;;;;;19.69;32.54;99250.50;4954681;28;20521;-73
2021/04/21 10:43:59;;;;;;;9.80;6.85;;;;;;;19.91;32.16;99240.13;4955153;28;20577;-74
2021/04/21 10:46:45;;;;;;;8.13;7.30;;;;;;;19.76;32.54;99248.91;4954769;29;20246;-73
2021/04/21 10:49:41;;;;;;;7.53;6.78;;;;;;;19.78;32.45;99248.72;4954981;28;20235;-73
2021/04/21 10:52:15;;;;;;;8.75;6.70;;;;;;;19.35;32.84;99239.38;4955441;28;20203;-73
2021/04/21 10:54:41;;;;;;;7.53;6.72;;;;;;;19.25;32.67;99242.19;4955684;29;20594;-73
2021/04/21 10:57:28;;;;;;;8.90;7.07;;;;;;;19.21;33.18;99239.91;4955163;29;20211;-73
2021/04/21 11:00:15;;;;;;;7.65;6.95;;;;;;;19.11;33.06;99239.97;4955359;28;20646;-73
2021/04/21 11:02:51;;;;;;;8.35;6.50;;;;;;;19.08;33.15;99229.34;4955805;28;20203;-73
2021/04/21 11:05:20;;;;;;;5.75;5.25;;;;;;;19.09;32.52;99234.66;4955240;29;20238;-74
2021/04/21 11:07:57;;;;;;;6.70;6.00;;;;;;;19.26;32.52;99232.97;4954671;28;20653;-74
2021/04/21 11:10:36;;;;;;;8.38;7.25;;;;;;;19.46;32.29;99230.97;4954569;29;20956;-71
2021/04/21 11:13:05;;;;;;;7.32;6.25;;;;;;;19.34;32.11;99226.75;4954330;28;20297;-72
2021/04/21 11:15:37;;;;;;;8.10;6.25;;;;;;;19.41;32.31;99222.41;4954765;28;20203;-71
2021/04/21 11:18:34;;;;;;;8.90;7.90;;;;;;;19.76;32.14;99224.31;4954851;29;20642;-72
2021/04/21 11:21:04;;;;;;;6.60;6.00;;;;;;;19.89;31.31;99229.34;4954722;28;20561;-72
2021/04/21 11:24:10;;;;;;;8.30;6.75;;;;;;;19.88;31.75;99226.81;4954482;29;20192;-74
2021/04/21 11:26:38;;;;;;;8.20;6.55;;;;;;;20.00;31.36;99223.63;4895520;29;20296;-72
2021/04/21 11:29:07;;;;;;;8.00;7.22;;;;;;;20.26;31.08;99228.28;4945516;28;20204;-73
2021/04/21 11:32:13;;;;;;;9.05;6.70;;;;;;;20.47;30.69;99224.31;4954643;29;20368;-73
2021/04/21 11:34:41;;;;;;;6.40;5.80;;;;;;;20.36;30.84;99217.25;4953875;28;20215;-72
2021/04/21 11:37:10;;;;;;;7.82;6.88;;;;;;;20.42;31.03;99220.19;4954722;29;20207;-73
2021/04/21 11:40:06;;;;;;;7.72;7.00;;;;;;;20.11;31.16;99216.22;4954661;29;20242;-73
2021/04/21 11:42:40;;;;;;;6.50;5.73;;;;;;;20.16;30.83;99220.16;4954879;29;20224;-72
2021/04/21 11:45:30;;;;;;;11.05;8.05;;;;;;;19.78;31.48;99213.22;4954904;28;20459;-73
2021/04/21 11:48:17;;;;;;;7.18;6.55;;;;;;;19.70;31.69;99205.81;4954701;29;20211;-73
2021/04/21 11:50:45;;;;;;;11.13;5.93;;;;;;;19.56;31.20;99201.72;4954046;29;20208;-73
2021/04/21 11:53:15;;;;;;;7.27;6.57;;;;;;;19.96;30.84;99203.09;4955524;28;20530;-73